sensor_id;sensor_type;location;lat;lon;timestamp;P1;durP1;ratioP1;P2;durP2;ratioP2
39410;SDS011;26579;43.238;23.124;2023-02-01T00:01:16;51.22;;;22.25;;
39410;SDS011;26579;43.238;23.124;2023-02-01T00:03:42;40.13;;;17.90;;
39410;SDS011;26579;43.238;23.124;2023-02-01T00:06:19;36.72;;;17.30;;
39410;SDS011;26579;43.238;23.124;2023-02-01T00:08:54;39.90;;;17.55;;
39410;SDS011;26579;43.238;23.124;2023-02-01T00:11:20;41.17;;;17.80;;
39410;SDS011;26579;43.238;23.124;2023-02-01T00:13:47;32.20;;;15.90;;
39410;SDS011;26579;43.238;23.124;2023-02-01T00:16:22;28.55;;;13.52;;
39410;SDS011;26579;43.238;23.124;2023-02-01T00:18:55;36.65;;;14.80;;
39410;SDS011;26579;43.238;23.124;2023-02-01T00:21:26;31.90;;;13.48;;
39410;SDS011;26579;43.238;23.124;2023-02-01T00:23:52;40.50;;;16.05;;
39410;SDS011;26579;43.238;23.124;2023-02-01T00:26:30;43.00;;;18.25;;
39410;SDS011;26579;43.238;23.124;2023-02-01T00:28:57;44.33;;;21.38;;
39410;SDS011;26579;43.238;23.124;2023-02-01T00:31:23;78.68;;;32.78;;
39410;SDS011;26579;43.238;23.124;2023-02-01T00:33:48;95.13;;;37.15;;
39410;SDS011;26579;43.238;23.124;2023-02-01T00:36:15;53.47;;;21.67;;
39410;SDS011;26579;43.238;23.124;2023-02-01T00:38:41;53.33;;;21.08;;
39410;SDS011;26579;43.238;23.124;2023-02-01T00:41:08;56.17;;;23.80;;
39410;SDS011;26579;43.238;23.124;2023-02-01T00:43:35;61.05;;;25.23;;
39410;SDS011;26579;43.238;23.124;2023-02-01T00:46:00;47.08;;;21.17;;
39410;SDS011;26579;43.238;23.124;2023-02-01T00:48:26;30.73;;;13.02;;
39410;SDS011;26579;43.238;23.124;2023-02-01T00:50:52;32.38;;;14.43;;
39410;SDS011;26579;43.238;23.124;2023-02-01T00:53:20;27.55;;;13.50;;
39410;SDS011;26579;43.238;23.124;2023-02-01T00:55:46;18.95;;;9.88;;
39410;SDS011;26579;43.238;23.124;2023-02-01T00:58:13;18.63;;;8.35;;
39410;SDS011;26579;43.238;23.124;2023-02-01T01:00:39;21.80;;;8.43;;
39410;SDS011;26579;43.238;23.124;2023-02-01T01:03:05;10.23;;;4.57;;
39410;SDS011;26579;43.238;23.124;2023-02-01T01:05:31;17.13;;;7.63;;
39410;SDS011;26579;43.238;23.124;2023-02-01T01:07:56;16.00;;;6.78;;
39410;SDS011;26579;43.238;23.124;2023-02-01T01:10:22;14.38;;;7.53;;
39410;SDS011;26579;43.238;23.124;2023-02-01T01:12:48;19.88;;;9.68;;
39410;SDS011;26579;43.238;23.124;2023-02-01T01:15:13;26.08;;;10.20;;
39410;SDS011;26579;43.238;23.124;2023-02-01T01:17:39;20.60;;;9.35;;
39410;SDS011;26579;43.238;23.124;2023-02-01T01:20:05;20.63;;;9.40;;
39410;SDS011;26579;43.238;23.124;2023-02-01T01:22:31;18.42;;;9.23;;
39410;SDS011;26579;43.238;23.124;2023-02-01T01:24:56;15.68;;;6.78;;
39410;SDS011;26579;43.238;23.124;2023-02-01T01:27:22;22.92;;;9.57;;
39410;SDS011;26579;43.238;23.124;2023-02-01T01:29:48;18.33;;;7.90;;
39410;SDS011;26579;43.238;23.124;2023-02-01T01:32:14;18.88;;;8.43;;
39410;SDS011;26579;43.238;23.124;2023-02-01T01:34:40;19.33;;;9.98;;
39410;SDS011;26579;43.238;23.124;2023-02-01T01:37:06;22.90;;;10.88;;
39410;SDS011;26579;43.238;23.124;2023-02-01T01:39:31;28.58;;;12.85;;
39410;SDS011;26579;43.238;23.124;2023-02-01T01:41:57;36.30;;;15.75;;
39410;SDS011;26579;43.238;23.124;2023-02-01T01:47:32;34.72;;;14.70;;
39410;SDS011;26579;43.238;23.124;2023-02-01T01:50:06;26.10;;;12.48;;
39410;SDS011;26579;43.238;23.124;2023-02-01T01:52:35;27.58;;;13.45;;
39410;SDS011;26579;43.238;23.124;2023-02-01T01:55:03;32.55;;;14.65;;
39410;SDS011;26579;43.238;23.124;2023-02-01T01:57:31;33.10;;;16.25;;
39410;SDS011;26579;43.238;23.124;2023-02-01T02:00:05;29.75;;;14.45;;
39410;SDS011;26579;43.238;23.124;2023-02-01T02:02:40;28.27;;;14.60;;
39410;SDS011;26579;43.238;23.124;2023-02-01T02:05:08;30.75;;;16.10;;
39410;SDS011;26579;43.238;23.124;2023-02-01T02:07:39;28.00;;;12.32;;
39410;SDS011;26579;43.238;23.124;2023-02-01T02:10:08;24.35;;;11.48;;
39410;SDS011;26579;43.238;23.124;2023-02-01T02:12:38;14.85;;;7.05;;
39410;SDS011;26579;43.238;23.124;2023-02-01T02:15:06;9.85;;;4.10;;
39410;SDS011;26579;43.238;23.124;2023-02-01T02:26:15;9.88;;;3.50;;
39410;SDS011;26579;43.238;23.124;2023-02-01T02:32:05;11.25;;;5.03;;
39410;SDS011;26579;43.238;23.124;2023-02-01T02:42:45;6.05;;;3.00;;
39410;SDS011;26579;43.238;23.124;2023-02-01T02:45:37;3.00;;;1.30;;
39410;SDS011;26579;43.238;23.124;2023-02-01T02:51:21;2.45;;;1.05;;
39410;SDS011;26579;43.238;23.124;2023-02-01T02:53:56;2.13;;;0.90;;
39410;SDS011;26579;43.238;23.124;2023-02-01T02:56:27;8.07;;;3.17;;
39410;SDS011;26579;43.238;23.124;2023-02-01T02:58:54;2.95;;;1.20;;
39410;SDS011;26579;43.238;23.124;2023-02-01T03:01:20;3.28;;;1.13;;
39410;SDS011;26579;43.238;23.124;2023-02-01T03:03:46;2.70;;;1.15;;
39410;SDS011;26579;43.238;23.124;2023-02-01T03:06:14;5.38;;;1.77;;
39410;SDS011;26579;43.238;23.124;2023-02-01T03:08:41;4.38;;;1.58;;
39410;SDS011;26579;43.238;23.124;2023-02-01T03:11:08;4.90;;;2.45;;
39410;SDS011;26579;43.238;23.124;2023-02-01T03:19:41;3.80;;;1.23;;
39410;SDS011;26579;43.238;23.124;2023-02-01T03:21:50;9.20;;;3.50;;
39410;SDS011;26579;43.238;23.124;2023-02-01T03:27:07;4.93;;;2.63;;
39410;SDS011;26579;43.238;23.124;2023-02-01T03:29:44;5.57;;;2.65;;
39410;SDS011;26579;43.238;23.124;2023-02-01T03:32:11;4.45;;;2.70;;
39410;SDS011;26579;43.238;23.124;2023-02-01T03:34:37;5.18;;;1.80;;
39410;SDS011;26579;43.238;23.124;2023-02-01T03:37:04;10.23;;;5.15;;
39410;SDS011;26579;43.238;23.124;2023-02-01T03:42:18;10.82;;;6.03;;
39410;SDS011;26579;43.238;23.124;2023-02-01T03:45:16;15.80;;;7.95;;
39410;SDS011;26579;43.238;23.124;2023-02-01T03:47:57;18.52;;;10.73;;
39410;SDS011;26579;43.238;23.124;2023-02-01T03:50:25;20.52;;;12.45;;
39410;SDS011;26579;43.238;23.124;2023-02-01T03:53:02;11.63;;;6.00;;
39410;SDS011;26579;43.238;23.124;2023-02-01T03:55:31;7.38;;;4.43;;
39410;SDS011;26579;43.238;23.124;2023-02-01T03:58:02;5.15;;;3.30;;
39410;SDS011;26579;43.238;23.124;2023-02-01T04:00:33;7.90;;;3.20;;
39410;SDS011;26579;43.238;23.124;2023-02-01T04:02:59;8.43;;;3.72;;
39410;SDS011;26579;43.238;23.124;2023-02-01T04:05:25;11.52;;;6.00;;
39410;SDS011;26579;43.238;23.124;2023-02-01T04:08:03;5.30;;;2.95;;
39410;SDS011;26579;43.238;23.124;2023-02-01T04:10:28;9.05;;;4.45;;
39410;SDS011;26579;43.238;23.124;2023-02-01T04:12:54;15.23;;;7.18;;
39410;SDS011;26579;43.238;23.124;2023-02-01T04:15:20;6.43;;;3.42;;
39410;SDS011;26579;43.238;23.124;2023-02-01T04:17:45;8.70;;;3.60;;
39410;SDS011;26579;43.238;23.124;2023-02-01T04:20:11;8.57;;;3.10;;
39410;SDS011;26579;43.238;23.124;2023-02-01T04:22:37;7.60;;;3.17;;
39410;SDS011;26579;43.238;23.124;2023-02-01T04:25:03;5.82;;;3.50;;
39410;SDS011;26579;43.238;23.124;2023-02-01T04:27:29;10.63;;;4.60;;
39410;SDS011;26579;43.238;23.124;2023-02-01T04:29:54;7.93;;;3.50;;
39410;SDS011;26579;43.238;23.124;2023-02-01T04:32:20;11.07;;;5.32;;
39410;SDS011;26579;43.238;23.124;2023-02-01T04:34:46;5.03;;;2.47;;
39410;SDS011;26579;43.238;23.124;2023-02-01T04:37:11;5.18;;;2.47;;
39410;SDS011;26579;43.238;23.124;2023-02-01T04:39:37;4.95;;;1.58;;
39410;SDS011;26579;43.238;23.124;2023-02-01T04:42:03;6.65;;;3.80;;
39410;SDS011;26579;43.238;23.124;2023-02-01T04:44:28;4.25;;;2.08;;
39410;SDS011;26579;43.238;23.124;2023-02-01T04:46:54;3.30;;;2.00;;
39410;SDS011;26579;43.238;23.124;2023-02-01T04:49:20;4.63;;;2.60;;
39410;SDS011;26579;43.238;23.124;2023-02-01T04:51:45;7.07;;;2.85;;
39410;SDS011;26579;43.238;23.124;2023-02-01T04:54:11;6.97;;;3.10;;
39410;SDS011;26579;43.238;23.124;2023-02-01T04:56:37;6.55;;;2.85;;
39410;SDS011;26579;43.238;23.124;2023-02-01T04:59:03;12.30;;;4.47;;
39410;SDS011;26579;43.238;23.124;2023-02-01T05:01:29;6.07;;;2.50;;
39410;SDS011;26579;43.238;23.124;2023-02-01T05:03:55;11.52;;;4.28;;
39410;SDS011;26579;43.238;23.124;2023-02-01T05:06:21;7.88;;;3.70;;
39410;SDS011;26579;43.238;23.124;2023-02-01T05:08:47;6.70;;;3.92;;
39410;SDS011;26579;43.238;23.124;2023-02-01T05:11:13;9.57;;;3.88;;
39410;SDS011;26579;43.238;23.124;2023-02-01T05:13:39;7.55;;;3.58;;
39410;SDS011;26579;43.238;23.124;2023-02-01T05:16:05;13.93;;;4.13;;
39410;SDS011;26579;43.238;23.124;2023-02-01T05:18:31;17.15;;;3.15;;
39410;SDS011;26579;43.238;23.124;2023-02-01T05:20:57;6.60;;;2.17;;
39410;SDS011;26579;43.238;23.124;2023-02-01T05:23:23;15.07;;;4.55;;
39410;SDS011;26579;43.238;23.124;2023-02-01T05:25:48;32.30;;;15.43;;
39410;SDS011;26579;43.238;23.124;2023-02-01T05:28:14;21.23;;;10.45;;
39410;SDS011;26579;43.238;23.124;2023-02-01T05:30:40;15.00;;;7.53;;
39410;SDS011;26579;43.238;23.124;2023-02-01T05:33:06;16.35;;;9.25;;
39410;SDS011;26579;43.238;23.124;2023-02-01T05:35:32;26.42;;;13.10;;
39410;SDS011;26579;43.238;23.124;2023-02-01T05:37:58;68.43;;;32.90;;
39410;SDS011;26579;43.238;23.124;2023-02-01T05:40:23;20.52;;;10.30;;
39410;SDS011;26579;43.238;23.124;2023-02-01T05:42:49;33.92;;;11.82;;
39410;SDS011;26579;43.238;23.124;2023-02-01T05:45:15;39.88;;;16.17;;
39410;SDS011;26579;43.238;23.124;2023-02-01T05:47:40;31.63;;;14.25;;
39410;SDS011;26579;43.238;23.124;2023-02-01T05:50:07;34.92;;;14.50;;
39410;SDS011;26579;43.238;23.124;2023-02-01T05:52:33;45.47;;;19.42;;
39410;SDS011;26579;43.238;23.124;2023-02-01T05:54:58;38.72;;;19.15;;
39410;SDS011;26579;43.238;23.124;2023-02-01T05:57:24;37.65;;;15.77;;
39410;SDS011;26579;43.238;23.124;2023-02-01T05:59:50;26.15;;;14.38;;
39410;SDS011;26579;43.238;23.124;2023-02-01T06:02:16;29.00;;;16.30;;
39410;SDS011;26579;43.238;23.124;2023-02-01T06:04:41;30.08;;;17.90;;
39410;SDS011;26579;43.238;23.124;2023-02-01T06:07:08;36.25;;;19.23;;
39410;SDS011;26579;43.238;23.124;2023-02-01T06:09:35;37.47;;;20.92;;
39410;SDS011;26579;43.238;23.124;2023-02-01T06:12:01;19.48;;;11.18;;
39410;SDS011;26579;43.238;23.124;2023-02-01T06:14:28;26.55;;;12.73;;
39410;SDS011;26579;43.238;23.124;2023-02-01T06:16:54;18.17;;;9.18;;
39410;SDS011;26579;43.238;23.124;2023-02-01T06:19:20;32.25;;;7.55;;
39410;SDS011;26579;43.238;23.124;2023-02-01T06:21:48;26.42;;;8.15;;
39410;SDS011;26579;43.238;23.124;2023-02-01T06:24:14;14.45;;;7.90;;
39410;SDS011;26579;43.238;23.124;2023-02-01T06:26:40;16.10;;;7.18;;
39410;SDS011;26579;43.238;23.124;2023-02-01T06:29:06;31.10;;;14.38;;
39410;SDS011;26579;43.238;23.124;2023-02-01T06:31:33;31.33;;;12.35;;
39410;SDS011;26579;43.238;23.124;2023-02-01T06:33:58;39.33;;;17.45;;
39410;SDS011;26579;43.238;23.124;2023-02-01T06:36:24;99.22;;;46.03;;
39410;SDS011;26579;43.238;23.124;2023-02-01T06:38:50;146.00;;;71.35;;
39410;SDS011;26579;43.238;23.124;2023-02-01T06:41:16;136.30;;;62.17;;
39410;SDS011;26579;43.238;23.124;2023-02-01T06:43:41;107.35;;;51.75;;
39410;SDS011;26579;43.238;23.124;2023-02-01T06:46:08;106.30;;;46.97;;
39410;SDS011;26579;43.238;23.124;2023-02-01T06:48:36;60.08;;;29.73;;
39410;SDS011;26579;43.238;23.124;2023-02-01T06:51:02;57.20;;;27.63;;
39410;SDS011;26579;43.238;23.124;2023-02-01T06:53:28;71.95;;;34.25;;
39410;SDS011;26579;43.238;23.124;2023-02-01T06:55:58;40.58;;;19.33;;
39410;SDS011;26579;43.238;23.124;2023-02-01T06:58:32;26.35;;;10.50;;
39410;SDS011;26579;43.238;23.124;2023-02-01T07:01:00;68.15;;;35.55;;
39410;SDS011;26579;43.238;23.124;2023-02-01T07:03:30;91.53;;;45.67;;
39410;SDS011;26579;43.238;23.124;2023-02-01T07:05:56;131.30;;;61.03;;
39410;SDS011;26579;43.238;23.124;2023-02-01T07:08:22;93.80;;;46.17;;
39410;SDS011;26579;43.238;23.124;2023-02-01T07:10:48;171.23;;;73.82;;
39410;SDS011;26579;43.238;23.124;2023-02-01T07:13:13;95.05;;;43.60;;
39410;SDS011;26579;43.238;23.124;2023-02-01T07:15:39;95.25;;;46.80;;
39410;SDS011;26579;43.238;23.124;2023-02-01T07:18:05;147.90;;;67.00;;
39410;SDS011;26579;43.238;23.124;2023-02-01T07:20:30;111.43;;;53.47;;
39410;SDS011;26579;43.238;23.124;2023-02-01T07:22:56;82.63;;;40.83;;
39410;SDS011;26579;43.238;23.124;2023-02-01T07:25:22;90.25;;;46.13;;
39410;SDS011;26579;43.238;23.124;2023-02-01T07:27:48;32.72;;;18.90;;
39410;SDS011;26579;43.238;23.124;2023-02-01T07:30:14;33.72;;;17.67;;
39410;SDS011;26579;43.238;23.124;2023-02-01T07:32:40;43.70;;;21.23;;
39410;SDS011;26579;43.238;23.124;2023-02-01T07:35:06;30.40;;;16.80;;
39410;SDS011;26579;43.238;23.124;2023-02-01T07:37:32;30.65;;;16.27;;
39410;SDS011;26579;43.238;23.124;2023-02-01T07:39:58;27.77;;;15.48;;
39410;SDS011;26579;43.238;23.124;2023-02-01T07:42:23;36.05;;;19.65;;
39410;SDS011;26579;43.238;23.124;2023-02-01T07:44:56;44.00;;;23.00;;
39410;SDS011;26579;43.238;23.124;2023-02-01T07:47:22;49.60;;;28.20;;
39410;SDS011;26579;43.238;23.124;2023-02-01T07:49:48;52.08;;;24.95;;
39410;SDS011;26579;43.238;23.124;2023-02-01T07:52:13;76.50;;;38.45;;
39410;SDS011;26579;43.238;23.124;2023-02-01T07:54:39;38.92;;;21.80;;
39410;SDS011;26579;43.238;23.124;2023-02-01T07:57:05;77.53;;;36.95;;
39410;SDS011;26579;43.238;23.124;2023-02-01T07:59:30;51.33;;;26.85;;
39410;SDS011;26579;43.238;23.124;2023-02-01T08:01:56;35.25;;;17.13;;
39410;SDS011;26579;43.238;23.124;2023-02-01T08:04:22;18.75;;;9.05;;
39410;SDS011;26579;43.238;23.124;2023-02-01T08:06:47;33.72;;;18.10;;
39410;SDS011;26579;43.238;23.124;2023-02-01T08:09:13;32.70;;;18.77;;
39410;SDS011;26579;43.238;23.124;2023-02-01T08:11:39;21.02;;;11.70;;
39410;SDS011;26579;43.238;23.124;2023-02-01T08:14:05;14.13;;;7.93;;
39410;SDS011;26579;43.238;23.124;2023-02-01T08:16:30;15.45;;;10.63;;
39410;SDS011;26579;43.238;23.124;2023-02-01T08:18:56;12.48;;;7.95;;
39410;SDS011;26579;43.238;23.124;2023-02-01T08:21:23;18.38;;;10.57;;
39410;SDS011;26579;43.238;23.124;2023-02-01T08:23:51;24.40;;;15.40;;
39410;SDS011;26579;43.238;23.124;2023-02-01T08:26:19;18.17;;;10.57;;
39410;SDS011;26579;43.238;23.124;2023-02-01T08:28:48;7.75;;;4.07;;
39410;SDS011;26579;43.238;23.124;2023-02-01T08:31:16;16.58;;;8.85;;
39410;SDS011;26579;43.238;23.124;2023-02-01T08:33:43;23.80;;;14.63;;
39410;SDS011;26579;43.238;23.124;2023-02-01T08:36:13;37.05;;;20.40;;
39410;SDS011;26579;43.238;23.124;2023-02-01T08:38:39;49.88;;;22.98;;
39410;SDS011;26579;43.238;23.124;2023-02-01T08:41:08;76.80;;;36.85;;
39410;SDS011;26579;43.238;23.124;2023-02-01T08:43:45;61.95;;;30.65;;
39410;SDS011;26579;43.238;23.124;2023-02-01T08:46:11;59.72;;;32.55;;
39410;SDS011;26579;43.238;23.124;2023-02-01T08:48:37;27.75;;;16.63;;
39410;SDS011;26579;43.238;23.124;2023-02-01T08:51:10;65.57;;;33.60;;
39410;SDS011;26579;43.238;23.124;2023-02-01T08:53:37;63.88;;;35.33;;
39410;SDS011;26579;43.238;23.124;2023-02-01T08:56:04;74.60;;;39.80;;
39410;SDS011;26579;43.238;23.124;2023-02-01T08:58:30;124.00;;;61.35;;
39410;SDS011;26579;43.238;23.124;2023-02-01T09:00:56;114.88;;;61.83;;
39410;SDS011;26579;43.238;23.124;2023-02-01T09:03:22;97.85;;;52.00;;
39410;SDS011;26579;43.238;23.124;2023-02-01T09:05:47;99.25;;;53.65;;
39410;SDS011;26579;43.238;23.124;2023-02-01T09:08:13;87.53;;;47.38;;
39410;SDS011;26579;43.238;23.124;2023-02-01T09:10:39;50.25;;;29.95;;
39410;SDS011;26579;43.238;23.124;2023-02-01T09:13:05;56.08;;;29.75;;
39410;SDS011;26579;43.238;23.124;2023-02-01T09:15:30;53.97;;;31.05;;
39410;SDS011;26579;43.238;23.124;2023-02-01T09:17:56;30.05;;;18.10;;
39410;SDS011;26579;43.238;23.124;2023-02-01T09:20:22;35.30;;;19.92;;
39410;SDS011;26579;43.238;23.124;2023-02-01T09:22:48;37.17;;;23.25;;
39410;SDS011;26579;43.238;23.124;2023-02-01T09:25:13;45.05;;;29.30;;
39410;SDS011;26579;43.238;23.124;2023-02-01T09:27:39;36.92;;;22.30;;
39410;SDS011;26579;43.238;23.124;2023-02-01T09:30:05;8.20;;;4.80;;
39410;SDS011;26579;43.238;23.124;2023-02-01T09:32:31;9.77;;;5.85;;
39410;SDS011;26579;43.238;23.124;2023-02-01T09:34:57;7.60;;;5.35;;
39410;SDS011;26579;43.238;23.124;2023-02-01T09:37:22;7.43;;;2.85;;
39410;SDS011;26579;43.238;23.124;2023-02-01T09:39:48;12.63;;;8.73;;
39410;SDS011;26579;43.238;23.124;2023-02-01T09:42:16;5.95;;;4.43;;
39410;SDS011;26579;43.238;23.124;2023-02-01T09:45:06;5.10;;;3.70;;
39410;SDS011;26579;43.238;23.124;2023-02-01T09:47:35;2.08;;;1.33;;
39410;SDS011;26579;43.238;23.124;2023-02-01T09:50:11;4.20;;;1.58;;
39410;SDS011;26579;43.238;23.124;2023-02-01T09:52:41;10.10;;;6.05;;
39410;SDS011;26579;43.238;23.124;2023-02-01T09:55:20;5.25;;;2.80;;
39410;SDS011;26579;43.238;23.124;2023-02-01T09:58:11;4.30;;;2.00;;
39410;SDS011;26579;43.238;23.124;2023-02-01T10:00:43;6.70;;;3.03;;
39410;SDS011;26579;43.238;23.124;2023-02-01T10:11:32;3.72;;;2.17;;
39410;SDS011;26579;43.238;23.124;2023-02-01T10:14:15;4.15;;;1.85;;
39410;SDS011;26579;43.238;23.124;2023-02-01T10:25:03;3.45;;;1.10;;
39410;SDS011;26579;43.238;23.124;2023-02-01T10:27:35;4.05;;;1.00;;
39410;SDS011;26579;43.238;23.124;2023-02-01T10:30:13;5.00;;;2.53;;
39410;SDS011;26579;43.238;23.124;2023-02-01T10:32:43;3.08;;;1.52;;
39410;SDS011;26579;43.238;23.124;2023-02-01T10:35:16;3.58;;;1.88;;
39410;SDS011;26579;43.238;23.124;2023-02-01T10:38:02;8.88;;;3.38;;
39410;SDS011;26579;43.238;23.124;2023-02-01T10:40:37;8.10;;;3.30;;
39410;SDS011;26579;43.238;23.124;2023-02-01T10:43:02;4.47;;;2.40;;
39410;SDS011;26579;43.238;23.124;2023-02-01T10:45:29;3.25;;;1.33;;
39410;SDS011;26579;43.238;23.124;2023-02-01T10:47:58;2.63;;;1.48;;
39410;SDS011;26579;43.238;23.124;2023-02-01T10:50:31;2.65;;;1.25;;
39410;SDS011;26579;43.238;23.124;2023-02-01T10:55:40;2.05;;;1.38;;
39410;SDS011;26579;43.238;23.124;2023-02-01T10:58:16;3.28;;;1.85;;
39410;SDS011;26579;43.238;23.124;2023-02-01T11:00:45;6.43;;;2.42;;
39410;SDS011;26579;43.238;23.124;2023-02-01T11:03:21;5.85;;;1.70;;
39410;SDS011;26579;43.238;23.124;2023-02-01T11:06:24;10.00;;;4.88;;
39410;SDS011;26579;43.238;23.124;2023-02-01T11:14:15;5.55;;;3.00;;
39410;SDS011;26579;43.238;23.124;2023-02-01T11:16:48;3.58;;;1.75;;
39410;SDS011;26579;43.238;23.124;2023-02-01T11:19:17;6.30;;;2.58;;
39410;SDS011;26579;43.238;23.124;2023-02-01T11:21:43;3.90;;;1.40;;
39410;SDS011;26579;43.238;23.124;2023-02-01T11:24:44;2.33;;;1.40;;
39410;SDS011;26579;43.238;23.124;2023-02-01T11:27:03;4.53;;;2.35;;
39410;SDS011;26579;43.238;23.124;2023-02-01T11:29:41;5.85;;;2.42;;
39410;SDS011;26579;43.238;23.124;2023-02-01T11:32:09;3.08;;;1.40;;
39410;SDS011;26579;43.238;23.124;2023-02-01T11:34:38;4.80;;;3.53;;
39410;SDS011;26579;43.238;23.124;2023-02-01T11:37:17;5.40;;;2.80;;
39410;SDS011;26579;43.238;23.124;2023-02-01T11:42:25;11.65;;;6.55;;
39410;SDS011;26579;43.238;23.124;2023-02-01T11:47:55;4.60;;;1.83;;
39410;SDS011;26579;43.238;23.124;2023-02-01T11:50:35;6.57;;;3.13;;
39410;SDS011;26579;43.238;23.124;2023-02-01T12:07:13;4.30;;;2.10;;
39410;SDS011;26579;43.238;23.124;2023-02-01T12:15:30;3.90;;;2.30;;
39410;SDS011;26579;43.238;23.124;2023-02-01T12:18:34;5.32;;;2.80;;
39410;SDS011;26579;43.238;23.124;2023-02-01T12:23:52;10.90;;;5.78;;
39410;SDS011;26579;43.238;23.124;2023-02-01T12:32:53;6.50;;;3.33;;
39410;SDS011;26579;43.238;23.124;2023-02-01T12:43:52;10.60;;;3.53;;
39410;SDS011;26579;43.238;23.124;2023-02-01T12:46:24;8.02;;;4.70;;
39410;SDS011;26579;43.238;23.124;2023-02-01T12:48:54;10.82;;;5.80;;
39410;SDS011;26579;43.238;23.124;2023-02-01T12:51:27;4.03;;;1.90;;
39410;SDS011;26579;43.238;23.124;2023-02-01T12:53:59;4.70;;;2.63;;
39410;SDS011;26579;43.238;23.124;2023-02-01T12:56:31;4.05;;;2.00;;
39410;SDS011;26579;43.238;23.124;2023-02-01T12:59:04;2.58;;;1.45;;
39410;SDS011;26579;43.238;23.124;2023-02-01T13:01:45;5.45;;;2.00;;
39410;SDS011;26579;43.238;23.124;2023-02-01T13:04:20;7.03;;;6.05;;
39410;SDS011;26579;43.238;23.124;2023-02-01T13:06:52;2.35;;;1.40;;
39410;SDS011;26579;43.238;23.124;2023-02-01T13:11:55;1.52;;;0.90;;
39410;SDS011;26579;43.238;23.124;2023-02-01T13:17:22;4.90;;;1.73;;
39410;SDS011;26579;43.238;23.124;2023-02-01T13:25:02;2.80;;;1.23;;
39410;SDS011;26579;43.238;23.124;2023-02-01T13:27:36;7.55;;;3.53;;
39410;SDS011;26579;43.238;23.124;2023-02-01T13:30:25;5.35;;;2.85;;
39410;SDS011;26579;43.238;23.124;2023-02-01T13:35:44;14.02;;;6.13;;
39410;SDS011;26579;43.238;23.124;2023-02-01T13:41:06;15.73;;;6.80;;
39410;SDS011;26579;43.238;23.124;2023-02-01T13:43:43;14.43;;;7.40;;
39410;SDS011;26579;43.238;23.124;2023-02-01T13:46:13;12.52;;;6.45;;
39410;SDS011;26579;43.238;23.124;2023-02-01T13:48:40;11.70;;;6.85;;
39410;SDS011;26579;43.238;23.124;2023-02-01T13:51:12;9.23;;;4.18;;
39410;SDS011;26579;43.238;23.124;2023-02-01T13:53:44;8.50;;;4.80;;
39410;SDS011;26579;43.238;23.124;2023-02-01T13:56:14;11.95;;;5.43;;
39410;SDS011;26579;43.238;23.124;2023-02-01T13:58:43;13.38;;;6.57;;
39410;SDS011;26579;43.238;23.124;2023-02-01T14:03:49;6.00;;;2.78;;
39410;SDS011;26579;43.238;23.124;2023-02-01T14:08:42;6.90;;;3.88;;
39410;SDS011;26579;43.238;23.124;2023-02-01T14:11:43;14.30;;;7.55;;
39410;SDS011;26579;43.238;23.124;2023-02-01T14:14:45;14.98;;;6.90;;
39410;SDS011;26579;43.238;23.124;2023-02-01T14:19:22;17.65;;;9.18;;
39410;SDS011;26579;43.238;23.124;2023-02-01T14:21:58;28.67;;;12.43;;
39410;SDS011;26579;43.238;23.124;2023-02-01T14:24:29;21.67;;;10.55;;
39410;SDS011;26579;43.238;23.124;2023-02-01T14:26:58;21.23;;;8.63;;
39410;SDS011;26579;43.238;23.124;2023-02-01T14:29:29;17.30;;;10.10;;
39410;SDS011;26579;43.238;23.124;2023-02-01T14:37:06;14.52;;;8.57;;
39410;SDS011;26579;43.238;23.124;2023-02-01T14:42:20;17.02;;;10.65;;
39410;SDS011;26579;43.238;23.124;2023-02-01T14:44:49;12.85;;;6.78;;
39410;SDS011;26579;43.238;23.124;2023-02-01T14:52:34;15.32;;;6.88;;
39410;SDS011;26579;43.238;23.124;2023-02-01T14:55:04;11.10;;;5.07;;
39410;SDS011;26579;43.238;23.124;2023-02-01T14:57:35;14.75;;;8.77;;
39410;SDS011;26579;43.238;23.124;2023-02-01T15:02:51;18.40;;;9.43;;
39410;SDS011;26579;43.238;23.124;2023-02-01T15:05:23;55.58;;;30.52;;
39410;SDS011;26579;43.238;23.124;2023-02-01T15:07:52;60.95;;;31.25;;
39410;SDS011;26579;43.238;23.124;2023-02-01T15:10:18;105.15;;;52.17;;
39410;SDS011;26579;43.238;23.124;2023-02-01T15:12:46;82.60;;;42.08;;
39410;SDS011;26579;43.238;23.124;2023-02-01T15:15:17;73.38;;;43.45;;
39410;SDS011;26579;43.238;23.124;2023-02-01T15:17:51;73.82;;;42.10;;
39410;SDS011;26579;43.238;23.124;2023-02-01T15:20:25;109.38;;;62.25;;
39410;SDS011;26579;43.238;23.124;2023-02-01T15:22:54;95.38;;;55.03;;
39410;SDS011;26579;43.238;23.124;2023-02-01T15:25:21;75.30;;;46.95;;
39410;SDS011;26579;43.238;23.124;2023-02-01T15:27:49;85.25;;;48.65;;
39410;SDS011;26579;43.238;23.124;2023-02-01T15:32:46;215.20;;;109.60;;
39410;SDS011;26579;43.238;23.124;2023-02-01T15:41:04;152.63;;;86.80;;
39410;SDS011;26579;43.238;23.124;2023-02-01T15:46:06;102.85;;;57.67;;
39410;SDS011;26579;43.238;23.124;2023-02-01T15:48:43;113.85;;;67.53;;
39410;SDS011;26579;43.238;23.124;2023-02-01T15:51:16;85.97;;;48.65;;
39410;SDS011;26579;43.238;23.124;2023-02-01T15:53:45;81.97;;;48.17;;
39410;SDS011;26579;43.238;23.124;2023-02-01T15:56:14;60.88;;;36.40;;
39410;SDS011;26579;43.238;23.124;2023-02-01T15:58:41;63.92;;;39.33;;
39410;SDS011;26579;43.238;23.124;2023-02-01T16:01:11;79.95;;;43.72;;
39410;SDS011;26579;43.238;23.124;2023-02-01T16:03:39;76.25;;;43.88;;
39410;SDS011;26579;43.238;23.124;2023-02-01T16:06:11;88.25;;;48.50;;
39410;SDS011;26579;43.238;23.124;2023-02-01T16:08:55;94.50;;;49.90;;
39410;SDS011;26579;43.238;23.124;2023-02-01T16:14:00;62.33;;;33.13;;
39410;SDS011;26579;43.238;23.124;2023-02-01T16:16:26;71.30;;;37.85;;
39410;SDS011;26579;43.238;23.124;2023-02-01T16:18:55;67.65;;;36.92;;
39410;SDS011;26579;43.238;23.124;2023-02-01T16:21:21;29.92;;;16.83;;
39410;SDS011;26579;43.238;23.124;2023-02-01T16:23:50;73.00;;;39.33;;
39410;SDS011;26579;43.238;23.124;2023-02-01T16:26:17;44.80;;;23.50;;
39410;SDS011;26579;43.238;23.124;2023-02-01T16:28:45;37.65;;;20.45;;
39410;SDS011;26579;43.238;23.124;2023-02-01T16:31:13;49.63;;;28.38;;
39410;SDS011;26579;43.238;23.124;2023-02-01T16:33:40;67.68;;;42.20;;
39410;SDS011;26579;43.238;23.124;2023-02-01T16:36:07;65.88;;;40.25;;
39410;SDS011;26579;43.238;23.124;2023-02-01T16:38:34;63.10;;;36.70;;
39410;SDS011;26579;43.238;23.124;2023-02-01T16:41:02;81.97;;;45.47;;
39410;SDS011;26579;43.238;23.124;2023-02-01T16:43:29;69.97;;;38.50;;
39410;SDS011;26579;43.238;23.124;2023-02-01T16:45:55;63.00;;;34.45;;
39410;SDS011;26579;43.238;23.124;2023-02-01T16:48:26;61.70;;;34.00;;
39410;SDS011;26579;43.238;23.124;2023-02-01T16:51:01;85.07;;;43.90;;
39410;SDS011;26579;43.238;23.124;2023-02-01T16:53:33;80.57;;;39.83;;
39410;SDS011;26579;43.238;23.124;2023-02-01T16:55:59;95.78;;;45.97;;
39410;SDS011;26579;43.238;23.124;2023-02-01T16:58:25;70.10;;;38.65;;
39410;SDS011;26579;43.238;23.124;2023-02-01T17:00:55;71.07;;;36.75;;
39410;SDS011;26579;43.238;23.124;2023-02-01T17:03:21;109.18;;;52.50;;
39410;SDS011;26579;43.238;23.124;2023-02-01T17:05:48;124.65;;;55.03;;
39410;SDS011;26579;43.238;23.124;2023-02-01T17:08:38;124.60;;;60.20;;